Fairchild, Wisconsin
Current Conditions -  °F | °C
As of 3:35 AM on Monday 24 Nov 2014 (Local Time) from KBCK Reporting Station
Light Rain Light Rain  
Wind Chill: 35°   Ceiling: 800
Heat Index: 38°   Visibility: 7mi
Dew Point: 38°   Wind: 5mph
Humidity: 100%   Direction: 300°WNW
Pressure: 29.14"   Gusts: NA
Location:  44.6°N, 90.96°W
Report Text: KBCK 240935Z AUTO 30004KT 7SM -RA OVC008 04/04 A2914 RMK AO2 P0004 T00350035
Loading
Personal Weather Stations






























Interactive Weather Map New forecast layout! Learn more

10-Day Weather Forecast

Advertisements
Track Severe Weather on mobile